createdAt,value
2018-12-18T00:02:05.345Z,5.70
2018-12-18T00:04:32.789Z,4.62
2018-12-18T00:07:00.241Z,5.20
2018-12-18T00:09:27.787Z,4.80
2018-12-18T00:11:59.293Z,5.78
2018-12-18T00:14:24.719Z,4.90
2018-12-18T00:16:52.205Z,5.80
2018-12-18T00:19:19.661Z,6.12
2018-12-18T00:21:47.156Z,4.30
2018-12-18T00:24:15.874Z,4.70
2018-12-18T00:26:43.342Z,4.50
2018-12-18T00:29:10.780Z,4.90
2018-12-18T00:31:38.257Z,5.30
2018-12-18T00:34:05.700Z,6.12
2018-12-18T00:36:33.218Z,4.92
2018-12-18T00:39:00.716Z,5.27
2018-12-18T00:41:28.156Z,6.00
2018-12-18T00:43:55.615Z,5.15
2018-12-18T00:46:23.110Z,5.25
2018-12-18T00:48:50.557Z,5.87
2018-12-18T00:51:18.015Z,6.20
2018-12-18T00:53:45.745Z,5.70
2018-12-18T00:56:13.220Z,5.08
2018-12-18T00:58:40.671Z,8.45
2018-12-18T01:01:08.198Z,12.40
2018-12-18T01:03:35.652Z,12.23
2018-12-18T01:06:03.112Z,11.48
2018-12-18T01:08:30.700Z,5.90
2018-12-18T01:10:58.228Z,7.60
2018-12-18T01:13:25.708Z,7.50
2018-12-18T01:15:53.192Z,8.68
2018-12-18T01:18:20.671Z,8.23
2018-12-18T01:20:48.093Z,7.70
2018-12-18T01:23:15.555Z,11.35
2018-12-18T01:25:43.019Z,10.60
2018-12-18T01:28:10.484Z,8.10
2018-12-18T01:30:37.935Z,10.95
2018-12-18T01:33:05.396Z,12.37
2018-12-18T01:35:32.841Z,9.13
2018-12-18T01:38:00.299Z,9.40
2018-12-18T01:40:29.204Z,7.60
2018-12-18T01:42:56.815Z,8.07
2018-12-18T01:45:24.277Z,6.90
2018-12-18T01:47:51.708Z,8.98
2018-12-18T01:50:19.190Z,8.30
2018-12-18T01:52:46.620Z,6.60
2018-12-18T01:55:14.105Z,6.90
2018-12-18T01:57:41.525Z,6.37
2018-12-18T02:00:09.151Z,7.12
2018-12-18T02:02:36.871Z,7.00
2018-12-18T02:05:04.845Z,7.17
2018-12-18T02:07:32.353Z,6.50
2018-12-18T02:09:59.821Z,7.35
2018-12-18T02:12:27.261Z,7.20
2018-12-18T02:14:54.703Z,6.95
2018-12-18T02:17:22.176Z,6.37
2018-12-18T02:19:49.681Z,8.00
2018-12-18T02:22:17.124Z,9.50
2018-12-18T02:24:44.568Z,7.75
2018-12-18T02:27:12.032Z,7.12
2018-12-18T02:29:39.510Z,6.77
2018-12-18T02:32:06.980Z,6.12
2018-12-18T02:34:34.432Z,8.10
2018-12-18T02:37:01.893Z,6.30
2018-12-18T02:39:29.343Z,7.60
2018-12-18T02:41:56.790Z,7.10
2018-12-18T02:44:24.247Z,7.87
2018-12-18T02:46:51.768Z,7.70
2018-12-18T02:49:19.311Z,8.23
2018-12-18T02:51:46.769Z,7.53
2018-12-18T02:54:14.221Z,7.33
2018-12-18T02:56:41.774Z,6.78
2018-12-18T02:59:09.231Z,7.60
2018-12-18T03:01:36.833Z,7.00
2018-12-18T03:04:04.285Z,7.35
2018-12-18T03:06:31.850Z,7.08
2018-12-18T03:08:59.320Z,6.95
2018-12-18T03:11:26.780Z,7.33
2018-12-18T03:13:54.246Z,6.42
2018-12-18T03:16:21.687Z,9.83
2018-12-18T03:18:49.153Z,7.35
2018-12-18T03:21:16.612Z,7.83
2018-12-18T03:23:44.174Z,7.22
2018-12-18T03:26:11.676Z,6.53
2018-12-18T03:28:39.168Z,7.45
2018-12-18T03:31:06.630Z,8.20
2018-12-18T03:33:34.159Z,7.77
2018-12-18T03:36:01.612Z,7.45
2018-12-18T03:38:29.063Z,8.13
2018-12-18T03:40:56.892Z,7.30
2018-12-18T03:43:24.450Z,7.45
2018-12-18T03:45:53.090Z,8.08
2018-12-18T03:48:20.876Z,7.50
2018-12-18T03:50:48.323Z,6.92
2018-12-18T03:53:15.804Z,6.65
2018-12-18T03:55:43.267Z,7.00
2018-12-18T03:58:10.738Z,7.60
2018-12-18T04:00:38.184Z,7.42
2018-12-18T04:03:05.651Z,7.67
2018-12-18T04:05:33.114Z,7.72
2018-12-18T04:08:00.576Z,7.67
2018-12-18T04:10:28.045Z,7.70
2018-12-18T04:12:55.475Z,8.00
2018-12-18T04:15:22.933Z,8.48
2018-12-18T04:17:50.382Z,9.45
2018-12-18T04:20:17.842Z,7.85
2018-12-18T04:22:45.310Z,7.60
2018-12-18T04:25:12.837Z,7.20
2018-12-18T04:27:40.285Z,7.50
2018-12-18T04:30:07.917Z,7.80
2018-12-18T04:32:35.341Z,7.10
2018-12-18T04:35:02.904Z,7.67
2018-12-18T04:37:30.352Z,7.45
2018-12-18T04:39:57.813Z,8.10
2018-12-18T04:42:25.247Z,9.18
2018-12-18T04:44:52.728Z,9.25
2018-12-18T04:47:20.161Z,9.30
2018-12-18T04:49:47.624Z,8.18
2018-12-18T04:52:15.183Z,9.30
2018-12-18T04:54:42.732Z,8.50
2018-12-18T04:57:10.209Z,9.28
2018-12-18T04:59:37.632Z,8.98
2018-12-18T05:02:05.130Z,9.75
2018-12-18T05:04:32.665Z,8.95
2018-12-18T05:07:00.123Z,9.47
2018-12-18T05:09:27.581Z,9.45
2018-12-18T05:11:55.045Z,9.30
2018-12-18T05:14:22.511Z,8.18
2018-12-18T05:16:50.026Z,8.57
2018-12-18T05:19:17.460Z,10.25
2018-12-18T05:21:44.933Z,9.00
2018-12-18T05:24:12.376Z,10.00
2018-12-18T05:26:39.871Z,9.33
2018-12-18T05:29:07.439Z,9.33
2018-12-18T05:31:34.910Z,9.13
2018-12-18T05:34:02.361Z,9.88
2018-12-18T05:36:29.850Z,9.13
2018-12-18T05:38:57.315Z,8.67
2018-12-18T05:41:24.798Z,9.90
2018-12-18T05:43:52.271Z,8.63
2018-12-18T05:46:19.722Z,8.45
2018-12-18T05:48:47.226Z,8.10
2018-12-18T05:51:14.670Z,8.68
2018-12-18T05:53:42.145Z,9.05
2018-12-18T05:56:09.580Z,8.73
2018-12-18T05:58:37.153Z,9.40
2018-12-18T06:01:04.584Z,9.03
2018-12-18T06:03:32.053Z,9.68
2018-12-18T06:05:59.498Z,8.78
2018-12-18T06:08:26.980Z,9.25
2018-12-18T06:10:54.418Z,9.45
2018-12-18T06:13:21.890Z,9.30
2018-12-18T06:15:49.437Z,10.28
2018-12-18T06:18:16.902Z,10.23
2018-12-18T06:20:44.392Z,11.18
2018-12-18T06:23:11.827Z,10.33
2018-12-18T06:25:39.326Z,11.83
2018-12-18T06:28:06.784Z,11.97
2018-12-18T06:30:34.278Z,12.23
2018-12-18T06:33:01.725Z,11.40
2018-12-18T06:35:29.208Z,10.80
2018-12-18T06:37:56.676Z,11.63
2018-12-18T06:40:24.179Z,12.00
2018-12-18T06:42:53.275Z,11.00
2018-12-18T06:45:20.980Z,11.97
2018-12-18T06:47:48.534Z,11.85
2018-12-18T06:50:16.016Z,11.55
2018-12-18T06:52:43.600Z,11.25
2018-12-18T06:55:11.252Z,10.80
2018-12-18T06:57:38.767Z,10.88
2018-12-18T07:00:09.463Z,10.20
2018-12-18T07:02:36.921Z,10.43
2018-12-18T07:05:04.755Z,10.95
2018-12-18T07:07:32.202Z,11.40
2018-12-18T07:09:59.644Z,10.75
2018-12-18T07:12:27.124Z,10.85
2018-12-18T07:14:54.584Z,10.43
2018-12-18T07:17:22.117Z,11.27
2018-12-18T07:19:49.549Z,9.98
2018-12-18T07:22:17.024Z,11.65
2018-12-18T07:24:44.482Z,11.35
2018-12-18T07:27:11.920Z,12.03
2018-12-18T07:29:39.375Z,12.50
2018-12-18T07:32:06.878Z,13.00
2018-12-18T07:34:34.356Z,12.75
2018-12-18T07:37:01.998Z,11.50
2018-12-18T07:39:29.449Z,12.03
2018-12-18T07:41:56.909Z,11.68
2018-12-18T07:44:24.420Z,11.10
2018-12-18T07:46:51.974Z,11.90
2018-12-18T07:49:19.475Z,12.10
2018-12-18T07:51:47.025Z,12.33
2018-12-18T07:54:14.565Z,11.05
2018-12-18T07:56:42.088Z,10.88
2018-12-18T07:59:09.556Z,11.88
2018-12-18T08:01:37.046Z,11.05
2018-12-18T08:04:04.518Z,12.15
2018-12-18T08:06:31.997Z,12.75
2018-12-18T08:08:59.499Z,11.97
2018-12-18T08:11:27.006Z,12.58
2018-12-18T08:13:54.488Z,12.33
2018-12-18T08:16:21.957Z,12.68
2018-12-18T08:18:49.416Z,12.10
2018-12-18T08:21:16.869Z,11.10
2018-12-18T08:23:44.413Z,12.28
2018-12-18T08:26:11.931Z,11.65
2018-12-18T08:28:39.400Z,12.80
2018-12-18T08:31:06.876Z,14.65
2018-12-18T08:33:34.371Z,15.33
2018-12-18T08:36:01.848Z,17.05
2018-12-18T08:38:29.307Z,18.87
2018-12-18T08:40:56.755Z,18.75
2018-12-18T08:43:24.218Z,17.12
2018-12-18T08:45:51.765Z,18.10
2018-12-18T08:48:19.227Z,18.10
2018-12-18T08:50:46.703Z,17.12
2018-12-18T08:53:14.180Z,16.42
2018-12-18T08:55:42.238Z,17.37
2018-12-18T08:58:09.694Z,15.88
2018-12-18T09:00:37.186Z,16.62
2018-12-18T09:03:04.658Z,16.83
2018-12-18T09:05:32.171Z,17.30
2018-12-18T09:07:59.643Z,18.62
2018-12-18T09:10:27.144Z,17.50
2018-12-18T09:12:54.598Z,16.48
2018-12-18T09:15:27.766Z,16.32
2018-12-18T09:17:55.243Z,15.93
2018-12-18T09:20:22.890Z,15.80
2018-12-18T09:22:50.380Z,15.77
2018-12-18T09:25:17.847Z,16.42
2018-12-18T09:27:45.307Z,16.85
2018-12-18T09:30:12.786Z,16.30
2018-12-18T09:32:40.259Z,14.20
2018-12-18T09:35:07.749Z,11.90
2018-12-18T09:37:35.232Z,12.70
2018-12-18T09:40:03.073Z,13.75
2018-12-18T09:42:36.200Z,12.37
2018-12-18T09:45:04.401Z,10.50
2018-12-18T09:47:31.896Z,10.13
2018-12-18T09:49:59.365Z,11.33
2018-12-18T09:52:26.911Z,9.80
2018-12-18T09:54:54.373Z,10.03
2018-12-18T09:57:27.544Z,9.50
2018-12-18T09:59:54.997Z,10.07
2018-12-18T10:02:22.452Z,10.43
2018-12-18T10:04:49.904Z,9.10
2018-12-18T10:07:17.412Z,9.33
2018-12-18T10:09:44.871Z,9.43
2018-12-18T10:12:12.338Z,13.53
2018-12-18T10:14:40.042Z,10.60
2018-12-18T10:17:07.518Z,11.12
2018-12-18T10:19:34.984Z,11.30
2018-12-18T10:22:02.518Z,11.68
2018-12-18T10:24:30.004Z,11.70
2018-12-18T10:26:57.487Z,13.00
2018-12-18T10:29:24.968Z,11.90
2018-12-18T10:31:52.545Z,12.15
2018-12-18T10:34:20.000Z,12.25
2018-12-18T10:36:47.472Z,12.40
2018-12-18T10:39:14.937Z,11.00
2018-12-18T10:41:42.392Z,11.15
2018-12-18T10:44:09.914Z,11.20
2018-12-18T10:46:37.415Z,11.50
2018-12-18T10:49:04.921Z,11.40
2018-12-18T10:51:32.434Z,12.65
2018-12-18T10:53:59.990Z,12.70
2018-12-18T10:56:27.456Z,11.78
2018-12-18T10:58:54.909Z,12.35
2018-12-18T11:04:23.372Z,11.50
2018-12-18T11:06:50.916Z,11.70
2018-12-18T11:09:18.392Z,11.30
2018-12-18T11:11:46.560Z,11.53
2018-12-18T11:14:14.012Z,11.57
2018-12-18T11:16:41.500Z,11.28
2018-12-18T11:19:08.950Z,12.00
2018-12-18T11:21:36.412Z,12.20
2018-12-18T11:24:03.871Z,11.53
2018-12-18T11:26:31.433Z,11.30
2018-12-18T11:28:58.905Z,11.33
2018-12-18T11:31:26.376Z,12.33
2018-12-18T11:33:53.881Z,13.53
2018-12-18T11:36:21.446Z,12.10
2018-12-18T11:38:48.897Z,12.40
2018-12-18T11:41:16.362Z,13.80
2018-12-18T11:43:43.850Z,13.93
2018-12-18T11:46:11.322Z,12.33
2018-12-18T11:48:38.773Z,12.40
2018-12-18T11:51:06.224Z,13.98
2018-12-18T11:53:33.716Z,11.12
2018-12-18T11:56:01.144Z,12.70
2018-12-18T11:58:28.642Z,12.37
2018-12-18T12:00:56.099Z,10.85
2018-12-18T12:03:23.613Z,11.10
2018-12-18T12:05:51.071Z,11.83
2018-12-18T12:08:18.564Z,11.43
2018-12-18T12:10:46.061Z,10.93
2018-12-18T12:13:13.516Z,10.43
2018-12-18T12:15:40.975Z,10.80
2018-12-18T12:18:08.474Z,10.85
2018-12-18T12:20:35.938Z,9.90
2018-12-18T12:23:03.428Z,11.12
2018-12-18T12:25:30.913Z,10.85
2018-12-18T12:28:04.191Z,10.30
2018-12-18T12:30:31.648Z,10.80
2018-12-18T12:32:59.129Z,9.55
2018-12-18T12:35:26.569Z,9.87
2018-12-18T12:37:54.055Z,10.25
2018-12-18T12:40:21.526Z,9.50
2018-12-18T12:42:48.985Z,10.07
2018-12-18T12:45:16.453Z,9.85
2018-12-18T12:47:45.912Z,8.95
2018-12-18T12:50:13.697Z,10.20
2018-12-18T12:52:41.212Z,10.15
2018-12-18T12:55:08.667Z,8.83
2018-12-18T12:57:36.132Z,10.40
2018-12-18T13:00:03.971Z,10.60
2018-12-18T13:02:31.434Z,10.45
2018-12-18T13:04:58.902Z,8.85
2018-12-18T13:07:26.344Z,9.75
2018-12-18T13:09:53.832Z,10.00
2018-12-18T13:12:21.259Z,10.30
2018-12-18T13:14:49.571Z,10.35
2018-12-18T13:17:17.129Z,9.55
2018-12-18T13:19:44.569Z,10.23
2018-12-18T13:22:12.035Z,9.63
2018-12-18T13:24:39.492Z,10.08
2018-12-18T13:27:06.985Z,10.03
2018-12-18T13:29:34.956Z,10.63
2018-12-18T13:32:02.453Z,10.80
2018-12-18T13:34:29.895Z,9.68
2018-12-18T13:36:57.371Z,9.85
2018-12-18T13:39:24.824Z,9.73
2018-12-18T13:41:52.304Z,9.68
2018-12-18T13:44:19.741Z,9.65
2018-12-18T13:46:47.207Z,9.50
2018-12-18T13:49:14.689Z,9.83
2018-12-18T13:51:42.190Z,9.95
2018-12-18T13:54:09.758Z,10.80
2018-12-18T13:56:37.223Z,11.12
2018-12-18T13:59:04.673Z,10.40
2018-12-18T14:01:32.379Z,10.08
2018-12-18T14:03:59.824Z,9.90
2018-12-18T14:06:27.305Z,9.15
2018-12-18T14:08:54.757Z,9.30
2018-12-18T14:11:22.229Z,10.25
2018-12-18T14:13:49.713Z,9.80
2018-12-18T14:16:17.161Z,9.08
2018-12-18T14:18:44.645Z,9.10
2018-12-18T14:21:12.125Z,9.80
2018-12-18T14:23:39.564Z,8.93
2018-12-18T14:26:07.149Z,8.78
2018-12-18T14:28:35.471Z,7.60
2018-12-18T14:31:02.928Z,8.58
2018-12-18T14:33:30.391Z,7.17
2018-12-18T14:35:57.844Z,7.05
2018-12-18T14:38:25.296Z,7.17
2018-12-18T14:40:52.731Z,7.80
2018-12-18T14:43:20.216Z,7.92
2018-12-18T14:45:47.683Z,8.20
2018-12-18T14:48:15.168Z,7.97
2018-12-18T14:50:42.681Z,9.00
2018-12-18T14:53:10.145Z,8.53
2018-12-18T14:55:37.602Z,8.00
2018-12-18T14:58:05.060Z,9.40
2018-12-18T15:00:32.559Z,10.20
2018-12-18T15:03:00.009Z,8.53
2018-12-18T15:05:27.465Z,9.73
2018-12-18T15:07:54.922Z,8.75
2018-12-18T15:10:22.480Z,8.48
2018-12-18T15:12:49.957Z,7.92
2018-12-18T15:15:17.512Z,8.63
2018-12-18T15:17:45.052Z,11.05
2018-12-18T15:20:12.705Z,8.43
2018-12-18T15:22:40.166Z,8.63
2018-12-18T15:25:07.695Z,9.70
2018-12-18T15:27:35.173Z,9.25
2018-12-18T15:30:02.729Z,6.90
2018-12-18T15:32:30.512Z,8.30
2018-12-18T15:34:58.107Z,9.23
2018-12-18T15:37:25.556Z,7.65
2018-12-18T15:39:53.008Z,11.55
2018-12-18T15:42:20.481Z,7.58
2018-12-18T15:44:47.945Z,8.75
2018-12-18T15:47:15.446Z,7.87
2018-12-18T15:49:42.902Z,8.33
2018-12-18T15:52:10.353Z,14.50
2018-12-18T15:54:37.816Z,10.75
2018-12-18T15:57:05.323Z,15.03
2018-12-18T15:59:32.823Z,16.70
2018-12-18T16:02:00.279Z,15.13
2018-12-18T16:04:27.727Z,12.93
2018-12-18T16:06:55.203Z,13.00
2018-12-18T16:09:22.747Z,10.58
2018-12-18T16:11:50.206Z,9.23
2018-12-18T16:14:17.681Z,8.25
2018-12-18T16:16:45.411Z,9.03
2018-12-18T16:19:12.928Z,7.60
2018-12-18T16:21:40.479Z,8.35
2018-12-18T16:24:07.936Z,8.08
2018-12-18T16:26:35.429Z,11.75
2018-12-18T16:29:03.062Z,16.07
2018-12-18T16:31:30.548Z,23.12
2018-12-18T16:33:58.021Z,12.60
2018-12-18T16:36:25.518Z,19.65
2018-12-18T16:38:53.025Z,11.57
2018-12-18T16:41:20.465Z,19.20
2018-12-18T16:43:48.039Z,18.98
2018-12-18T16:46:15.487Z,16.48
2018-12-18T16:48:42.967Z,11.05
2018-12-18T16:51:10.433Z,10.87
2018-12-18T16:53:37.910Z,10.68
2018-12-18T16:56:05.507Z,12.20
2018-12-18T16:58:32.989Z,9.83
2018-12-18T17:01:00.437Z,7.40
2018-12-18T17:03:27.893Z,6.40
2018-12-18T17:05:55.349Z,7.70
2018-12-18T17:08:22.821Z,12.43
2018-12-18T17:10:50.392Z,15.60
2018-12-18T17:13:17.864Z,10.93
2018-12-18T17:15:45.331Z,8.23
2018-12-18T17:18:12.777Z,7.75
2018-12-18T17:20:40.238Z,6.03
2018-12-18T17:23:07.700Z,7.12
2018-12-18T17:25:35.202Z,6.70
2018-12-18T17:28:02.693Z,6.75
2018-12-18T17:30:30.159Z,7.37
2018-12-18T17:32:57.603Z,10.18
2018-12-18T17:35:25.110Z,10.50
2018-12-18T17:37:52.952Z,8.18
2018-12-18T17:40:20.400Z,9.00
2018-12-18T17:42:47.884Z,9.98
2018-12-18T17:45:16.166Z,8.95
2018-12-18T17:47:43.628Z,9.50
2018-12-18T17:50:11.190Z,9.58
2018-12-18T17:52:38.975Z,8.63
2018-12-18T18:12:16.030Z,10.03
2018-12-18T18:14:43.471Z,9.45
2018-12-18T18:17:10.998Z,10.32
2018-12-18T18:19:38.440Z,10.65
2018-12-18T18:22:05.925Z,10.68
2018-12-18T18:24:33.399Z,10.98
2018-12-18T18:27:00.959Z,9.93
2018-12-18T18:29:28.399Z,11.57
2018-12-18T18:31:55.882Z,10.68
2018-12-18T18:34:23.348Z,30.43
2018-12-18T18:36:50.822Z,28.97
2018-12-18T18:39:18.304Z,82.12
2018-12-18T18:41:46.361Z,74.00
2018-12-18T18:44:13.863Z,69.15
2018-12-18T18:46:41.356Z,40.20
2018-12-18T18:49:08.863Z,37.78
2018-12-18T18:51:36.346Z,49.63
2018-12-18T18:54:04.044Z,28.03
2018-12-18T18:56:31.529Z,19.70
2018-12-18T18:58:59.050Z,16.93
2018-12-18T19:01:26.681Z,21.00
2018-12-18T19:03:54.271Z,15.95
2018-12-18T19:06:21.785Z,24.77
2018-12-18T19:08:49.362Z,22.02
2018-12-18T19:11:16.874Z,20.10
2018-12-18T19:13:44.336Z,18.82
2018-12-18T19:16:11.905Z,24.50
2018-12-18T19:18:39.421Z,23.92
2018-12-18T19:21:06.914Z,19.48
2018-12-18T19:23:34.454Z,20.27
2018-12-18T19:26:02.014Z,15.60
2018-12-18T19:28:29.479Z,13.10
2018-12-18T19:30:56.981Z,14.50
2018-12-18T19:33:24.461Z,17.20
2018-12-18T19:35:51.988Z,19.33
2018-12-18T19:38:19.464Z,22.05
2018-12-18T19:40:47.001Z,22.48
2018-12-18T19:43:14.515Z,19.52
2018-12-18T19:45:42.178Z,16.90
2018-12-18T19:48:09.691Z,15.55
2018-12-18T19:50:37.202Z,16.20
2018-12-18T19:53:04.720Z,17.05
2018-12-18T19:55:32.242Z,17.70
2018-12-18T19:57:59.863Z,15.85
2018-12-18T20:00:27.618Z,14.80
2018-12-18T20:02:55.233Z,13.50
2018-12-18T20:05:22.808Z,12.93
2018-12-18T20:07:50.424Z,12.30
2018-12-18T20:10:17.993Z,11.10
2018-12-18T20:12:46.081Z,11.25
2018-12-18T20:15:13.657Z,11.60
2018-12-18T20:17:41.175Z,15.08
2018-12-18T20:20:08.931Z,16.85
2018-12-18T20:22:36.455Z,47.70
2018-12-18T20:25:05.295Z,54.88
2018-12-18T20:27:32.772Z,68.20
2018-12-18T20:30:00.392Z,64.32
2018-12-18T20:32:27.846Z,38.58
2018-12-18T20:34:55.346Z,45.78
2018-12-18T20:37:23.026Z,27.65
2018-12-18T20:39:50.512Z,21.85
2018-12-18T20:42:17.991Z,30.00
2018-12-18T20:44:45.468Z,17.73
2018-12-18T20:47:12.946Z,15.18
2018-12-18T20:49:40.931Z,14.80
2018-12-18T20:52:08.647Z,16.35
2018-12-18T20:54:36.163Z,16.60
2018-12-18T20:57:03.706Z,18.17
2018-12-18T20:59:31.165Z,15.80
2018-12-18T21:55:53.705Z,47.30
2018-12-18T21:58:21.243Z,71.37
2018-12-18T22:00:48.692Z,69.37
2018-12-18T22:03:16.198Z,44.17
2018-12-18T22:05:43.676Z,50.27
2018-12-18T22:08:11.161Z,22.67
2018-12-18T22:10:38.649Z,26.77
2018-12-18T22:13:06.107Z,20.90
2018-12-18T22:15:33.588Z,37.47
2018-12-18T22:18:01.049Z,33.37
2018-12-18T22:20:28.530Z,22.80
2018-12-18T22:22:56.003Z,20.30
2018-12-18T22:25:23.474Z,18.77
2018-12-18T22:27:51.577Z,19.75
2018-12-18T22:30:19.302Z,31.87
2018-12-18T22:32:46.769Z,20.30
2018-12-18T22:35:14.233Z,17.13
2018-12-18T22:37:41.719Z,16.30
2018-12-18T22:40:09.205Z,17.20
2018-12-18T22:42:36.698Z,20.10
2018-12-18T22:45:04.600Z,20.60
2018-12-18T22:47:32.144Z,23.40
2018-12-18T22:49:59.595Z,25.57
2018-12-18T22:52:27.120Z,27.77
2018-12-18T22:54:54.569Z,27.60
2018-12-18T22:57:22.053Z,25.03
2018-12-18T22:59:49.557Z,22.17
2018-12-18T23:02:17.074Z,23.65
2018-12-18T23:04:44.521Z,23.85
2018-12-18T23:07:11.987Z,22.82
2018-12-18T23:09:39.475Z,21.85
2018-12-18T23:12:07.021Z,23.97
2018-12-18T23:14:34.564Z,20.77
2018-12-18T23:17:02.015Z,21.42
2018-12-18T23:19:29.477Z,23.02
2018-12-18T23:21:56.972Z,22.30
2018-12-18T23:24:24.454Z,22.47
2018-12-18T23:26:51.892Z,26.70
2018-12-18T23:29:19.378Z,25.20
2018-12-18T23:31:46.848Z,24.82
2018-12-18T23:34:14.292Z,24.15
2018-12-18T23:36:41.783Z,24.27
2018-12-18T23:39:09.257Z,24.70
2018-12-18T23:41:36.860Z,23.65
2018-12-18T23:44:04.445Z,24.85
2018-12-18T23:46:31.936Z,26.27
2018-12-18T23:48:59.405Z,21.68
2018-12-18T23:51:26.872Z,19.62
2018-12-18T23:53:54.347Z,21.12
2018-12-18T23:56:21.810Z,19.15
2018-12-18T23:58:49.293Z,21.50
